Time;durP1;ratioP1;P1;durP2;ratioP2;P2;SDS_P1;SDS_P2;PMS_P1;PMS_P2;Temp;Humidity;BMP_temperature;BMP_pressure;BME280_temperature;BME280_humidity;BME280_pressure;Samples;Min_cycle;Max_cycle;Signal;HPM_P1;HPM_P2
2023/03/22 00:00:37;;;;;;;44.60;26.90;;;;;;;23.50;34.38;99922.02;108175;1253;61471;-66
2023/03/22 00:03:06;;;;;;;36.70;22.50;;;;;;;23.72;33.82;99925.89;108145;1252;60559;-67
2023/03/22 00:05:36;;;;;;;42.00;26.70;;;;;;;23.46;33.74;99925.38;108139;1254;74037;-65
2023/03/22 00:08:24;;;;;;;41.00;25.70;;;;;;;23.59;33.83;99926.85;108156;1253;72525;-65
2023/03/22 00:10:54;;;;;;;36.10;21.80;;;;;;;23.27;34.11;99930.23;108186;1254;72239;-65
2023/03/22 00:13:24;;;;;;;38.40;24.60;;;;;;;22.86;34.48;99932.05;108160;1254;63207;-67
2023/03/22 00:15:54;;;;;;;37.20;23.60;;;;;;;22.78;34.67;99935.65;108209;1253;59347;-65
2023/03/22 00:18:29;;;;;;;36.20;23.10;;;;;;;22.51;35.06;99932.91;108131;1254;72980;-66
2023/03/22 00:20:58;;;;;;;44.20;26.00;;;;;;;22.41;35.47;99931.30;108183;1254;70437;-66
2023/03/22 00:23:27;;;;;;;45.90;28.40;;;;;;;22.62;35.25;99929.87;108157;1253;73529;-66
2023/03/22 00:25:55;;;;;;;46.90;29.00;;;;;;;22.74;35.47;99933.10;107997;1254;62087;-66
2023/03/22 00:28:23;;;;;;;47.80;28.20;;;;;;;22.79;35.50;99932.29;108220;1254;60456;-64
2023/03/22 00:30:57;;;;;;;46.80;28.70;;;;;;;22.23;36.28;99928.71;108102;1253;73486;-65
2023/03/22 00:33:28;;;;;;;45.00;29.60;;;;;;;22.36;36.25;99930.80;108183;1254;71621;-65
2023/03/22 00:35:58;;;;;;;49.80;28.80;;;;;;;22.96;35.42;99927.23;108163;1254;73613;-64
2023/03/22 00:38:32;;;;;;;40.20;25.60;;;;;;;22.95;35.53;99927.44;108188;1253;62207;-67
2023/03/22 00:41:17;;;;;;;48.40;28.40;;;;;;;23.08;35.25;99931.23;108107;1254;61108;-66
2023/03/22 00:43:47;;;;;;;45.70;27.50;;;;;;;23.26;35.03;99933.75;108193;1254;72826;-66
2023/03/22 00:46:18;;;;;;;46.50;29.10;;;;;;;22.92;35.44;99934.14;108234;1254;69967;-65
2023/03/22 00:48:47;;;;;;;47.70;28.30;;;;;;;23.24;34.80;99932.31;108247;1254;73332;-65
2023/03/22 00:51:15;;;;;;;44.00;26.80;;;;;;;22.73;35.41;99929.29;108245;1254;62150;-66
2023/03/22 00:53:44;;;;;;;53.90;30.30;;;;;;;23.04;35.25;99932.55;108133;1254;61550;-66
2023/03/22 00:56:14;;;;;;;45.40;28.00;;;;;;;23.09;35.21;99935.98;108162;1252;75216;-66
2023/03/22 00:58:47;;;;;;;36.20;24.30;;;;;;;22.72;35.62;99936.52;108237;1257;70785;-64
2023/03/22 01:01:16;;;;;;;44.50;28.30;;;;;;;22.59;35.48;99936.11;108154;1251;72614;-65
2023/03/22 01:03:49;;;;;;;42.50;27.10;;;;;;;22.78;35.16;99932.74;108245;1251;62164;-67
2023/03/22 01:06:17;;;;;;;51.60;30.30;;;;;;;22.89;35.08;99928.03;108097;1251;60339;-65
2023/03/22 01:08:49;;;;;;;48.70;29.50;;;;;;;22.82;35.37;99929.34;108276;1251;72722;-65
2023/03/22 01:11:20;;;;;;;37.30;23.50;;;;;;;22.98;35.20;99935.45;108046;1251;71324;-65
2023/03/22 01:13:49;;;;;;;41.40;26.70;;;;;;;23.11;34.48;99935.48;108304;1251;73631;-65
2023/03/22 01:16:17;;;;;;;43.70;27.50;;;;;;;22.99;34.85;99938.02;108264;1251;60889;-65
2023/03/22 01:18:45;;;;;;;37.50;25.00;;;;;;;22.86;34.68;99935.23;108093;1251;60970;-65
2023/03/22 01:21:14;;;;;;;48.80;29.60;;;;;;;22.84;34.88;99938.09;108320;1251;74746;-66
2023/03/22 01:23:42;;;;;;;47.10;29.30;;;;;;;22.82;35.12;99934.72;108139;1251;70127;-65
2023/03/22 01:26:10;;;;;;;44.60;28.70;;;;;;;23.00;35.01;99937.20;108343;1251;72831;-66
2023/03/22 01:28:39;;;;;;;47.00;29.10;;;;;;;22.71;35.47;99936.38;108082;1251;61751;-66
2023/03/22 01:31:07;;;;;;;46.80;28.40;;;;;;;22.59;35.61;99936.41;108308;1251;60639;-66
2023/03/22 01:33:36;;;;;;;45.30;27.90;;;;;;;22.73;35.42;99938.78;108316;1251;74120;-65
2023/03/22 01:36:05;;;;;;;45.30;29.00;;;;;;;22.98;35.24;99941.54;108315;1251;69874;-66
2023/03/22 01:38:34;;;;;;;41.00;26.80;;;;;;;22.90;35.16;99947.63;108335;1251;72909;-66
2023/03/22 01:41:02;;;;;;;46.70;28.30;;;;;;;22.52;35.73;99954.59;108080;1251;62700;-66
2023/03/22 01:43:34;;;;;;;42.40;26.10;;;;;;;22.36;35.87;99954.43;108250;1251;60935;-65
2023/03/22 01:46:03;;;;;;;48.40;28.90;;;;;;;22.73;35.50;99954.35;108273;1251;74231;-66
2023/03/22 01:48:40;;;;;;;44.10;27.50;;;;;;;22.82;35.31;99959.25;108085;1251;71644;-66
2023/03/22 01:51:12;;;;;;;47.80;28.60;;;;;;;23.01;34.89;99958.44;108056;1251;72742;-65
2023/03/22 01:54:05;;;;;;;42.70;26.60;;;;;;;22.95;35.11;99956.33;108230;1251;62192;-65
2023/03/22 01:56:35;;;;;;;44.40;27.80;;;;;;;22.89;35.03;99958.75;108045;1251;60513;-66
2023/03/22 01:59:04;;;;;;;48.60;27.00;;;;;;;22.92;34.83;99960.14;108048;1251;72085;-63
2023/03/22 02:01:51;;;;;;;46.10;27.30;;;;;;;22.78;35.05;99963.77;108140;1251;71547;-66
2023/03/22 02:04:22;;;;;;;42.80;26.70;;;;;;;22.82;35.15;99965.52;108199;1251;73593;-63
2023/03/22 02:06:52;;;;;;;44.10;26.90;;;;;;;22.90;34.85;99966.77;108165;1251;60374;-65
2023/03/22 02:09:21;;;;;;;45.00;26.50;;;;;;;23.03;34.65;99966.66;108251;1251;61257;-67
2023/03/22 02:11:58;;;;;;;40.10;25.30;;;;;;;23.07;34.45;99970.02;108288;1251;73043;-67
2023/03/22 02:14:36;;;;;;;39.90;25.20;;;;;;;22.90;34.61;99971.02;108019;1251;266570;-65
2023/03/22 02:18:56;;;;;;;43.30;26.50;;;;;;;18.09;42.66;99987.86;104884;1292;601155;-64
2023/03/22 02:21:51;;;;;;;47.00;28.10;;;;;;;19.74;39.54;99988.56;107167;1264;60026;-65
2023/03/22 02:24:48;;;;;;;43.10;27.50;;;;;;;20.08;38.83;99982.76;107308;1264;61217;-66
2023/03/22 02:27:19;;;;;;;49.20;28.80;;;;;;;20.34;38.42;99980.49;107180;1264;73326;-64
2023/03/22 02:29:55;;;;;;;47.50;28.30;;;;;;;20.77;37.73;99977.23;107272;1265;71577;-65
2023/03/22 02:32:51;;;;;;;46.90;26.80;;;;;;;20.63;37.84;99980.16;107196;1267;126143;-65
2023/03/22 02:36:06;;;;;;;39.40;24.00;;;;;;;20.89;37.61;99980.86;107277;1264;62436;-66
2023/03/22 02:39:14;;;;;;;41.10;25.60;;;;;;;20.44;38.05;99980.79;107278;1264;59934;-65
2023/03/22 02:42:14;;;;;;;49.40;28.20;;;;;;;20.22;38.28;99983.55;107207;1264;72483;-65
2023/03/22 02:44:49;;;;;;;47.00;27.90;;;;;;;20.20;38.22;99986.48;107406;1264;68402;-66
2023/03/22 02:47:48;;;;;;;45.80;28.50;;;;;;;20.48;37.75;99985.98;107354;1266;72380;-65
2023/03/22 02:50:45;;;;;;;47.20;28.10;;;;;;;20.72;37.50;99987.81;107363;1262;61549;-66
2023/03/22 02:53:19;;;;;;;44.70;27.50;;;;;;;20.75;37.34;99990.43;107425;1262;60979;-64
2023/03/22 02:55:53;;;;;;;43.00;27.40;;;;;;;21.00;37.00;99992.86;107298;1263;71441;-64
2023/03/22 02:58:36;;;;;;;52.60;29.20;;;;;;;20.99;37.04;99996.46;107398;1263;69893;-66
2023/03/22 03:01:08;;;;;;;45.70;29.10;;;;;;;20.92;37.27;99999.40;107844;1259;72295;-66
2023/03/22 03:03:36;;;;;;;47.30;27.80;;;;;;;20.90;37.38;100004.02;107584;1257;62497;-66
2023/03/22 03:06:08;;;;;;;50.70;28.70;;;;;;;21.18;37.05;100006.15;107534;1257;60238;-67
2023/03/22 03:08:37;;;;;;;47.70;29.50;;;;;;;21.34;36.74;100010.14;107647;1257;73284;-67
2023/03/22 03:11:09;;;;;;;46.80;28.30;;;;;;;21.15;37.15;100013.89;107531;1261;69480;-64
2023/03/22 03:13:39;;;;;;;52.70;31.00;;;;;;;20.89;37.61;100013.52;107527;1257;73509;-64
2023/03/22 03:16:12;;;;;;;49.40;29.90;;;;;;;21.12;37.47;100015.74;107679;1257;61127;-64
2023/03/22 03:18:53;;;;;;;47.00;29.10;;;;;;;21.28;37.19;100018.20;107725;1257;61562;-66
2023/03/22 03:21:44;;;;;;;45.70;27.70;;;;;;;21.52;37.03;100021.67;107636;1257;73125;-66
2023/03/22 03:24:27;;;;;;;46.70;28.10;;;;;;;21.47;37.07;100020.15;107802;1258;70113;-65
2023/03/22 03:27:03;;;;;;;46.00;26.70;;;;;;;21.63;36.85;100022.07;107642;1257;73130;-63
2023/03/22 03:29:39;;;;;;;46.70;27.80;;;;;;;21.83;36.59;100026.05;107768;1257;61433;-65
2023/03/22 03:32:30;;;;;;;46.40;25.90;;;;;;;21.97;36.37;100026.31;107785;1258;61496;-65
2023/03/22 03:35:21;;;;;;;44.40;27.50;;;;;;;21.93;36.47;100027.91;107720;1258;71269;-66
2023/03/22 03:38:20;;;;;;;47.00;27.00;;;;;;;21.77;36.85;100034.98;107694;1257;68242;-66
2023/03/22 03:40:52;;;;;;;48.30;29.20;;;;;;;21.88;36.61;100030.61;107533;1263;72366;-66
2023/03/22 03:43:21;;;;;;;47.40;28.20;;;;;;;21.75;36.92;100034.45;107651;1258;60758;-68
2023/03/22 03:45:52;;;;;;;47.40;28.30;;;;;;;21.47;37.45;100033.72;107730;1257;61262;-65
2023/03/22 03:48:22;;;;;;;45.50;28.30;;;;;;;21.29;37.68;100031.34;107661;1258;74256;-65
2023/03/22 03:50:51;;;;;;;46.50;27.70;;;;;;;21.21;38.05;100031.81;107728;1257;70561;-65
2023/03/22 03:53:19;;;;;;;40.70;25.60;;;;;;;21.51;37.57;100033.05;107644;1258;74354;-66
2023/03/22 03:55:47;;;;;;;36.20;21.80;;;;;;;21.74;37.21;100036.98;107548;1257;61398;-66
2023/03/22 03:58:16;;;;;;;44.20;24.10;;;;;;;21.79;36.86;100039.64;107736;1257;60969;-65
2023/03/22 04:00:45;;;;;;;44.80;26.80;;;;;;;21.88;36.71;100034.17;107721;1261;73856;-68
2023/03/22 04:03:19;;;;;;;45.50;27.60;;;;;;;21.82;36.88;100035.45;107687;1257;71439;-66
2023/03/22 04:06:17;;;;;;;42.80;26.50;;;;;;;21.97;36.66;100034.12;107873;1254;73400;-66
2023/03/22 04:08:52;;;;;;;49.90;26.70;;;;;;;21.99;36.69;100033.79;108071;1254;62323;-65
2023/03/22 04:11:26;;;;;;;36.30;23.30;;;;;;;21.80;36.98;100038.06;107998;1254;60023;-67
2023/03/22 04:13:56;;;;;;;48.00;27.30;;;;;;;21.80;37.12;100037.77;108035;1254;73979;-65
2023/03/22 04:16:25;;;;;;;44.10;26.60;;;;;;;21.77;37.07;100039.23;108096;1254;71597;-63
2023/03/22 04:18:54;;;;;;;42.60;26.70;;;;;;;21.47;37.61;100037.71;108109;1256;73698;-66
2023/03/22 04:21:22;;;;;;;44.10;26.00;;;;;;;21.73;37.32;100039.09;107939;1254;61252;-63
2023/03/22 04:23:58;;;;;;;42.80;26.50;;;;;;;21.56;37.50;100039.37;107992;1254;59794;-65
2023/03/22 04:26:28;;;;;;;28.70;17.40;;;;;;;21.57;37.58;100043.60;108030;1254;72033;-67
2023/03/22 04:29:17;;;;;;;39.10;25.30;;;;;;;21.53;37.53;100047.91;108040;1254;71551;-64
2023/03/22 04:31:55;;;;;;;36.60;21.70;;;;;;;21.32;37.73;100049.48;108027;1256;72959;-65
2023/03/22 04:34:28;;;;;;;35.40;21.70;;;;;;;21.36;37.53;100046.27;108057;1254;62082;-66
2023/03/22 04:37:02;;;;;;;37.40;24.50;;;;;;;21.33;37.74;100049.02;108022;1254;59742;-66
2023/03/22 04:39:33;;;;;;;38.60;23.00;;;;;;;21.50;37.45;100052.64;108078;1253;72389;-66
2023/03/22 04:42:20;;;;;;;38.30;24.20;;;;;;;21.77;37.12;100053.00;108048;1254;70421;-65
2023/03/22 04:44:52;;;;;;;45.80;27.20;;;;;;;21.72;37.12;100058.12;107763;1254;73655;-65
2023/03/22 04:47:20;;;;;;;37.50;23.20;;;;;;;21.66;37.31;100062.88;107936;1254;62124;-66
2023/03/22 04:49:49;;;;;;;38.10;22.90;;;;;;;21.61;37.45;100061.02;108036;1254;59493;-65
2023/03/22 04:52:17;;;;;;;40.40;24.70;;;;;;;21.54;37.80;100060.10;108063;1254;73530;-65
2023/03/22 04:54:51;;;;;;;32.30;21.30;;;;;;;21.49;38.19;100061.05;108122;1253;71646;-67
2023/03/22 04:57:20;;;;;;;41.20;23.40;;;;;;;21.65;38.05;100067.61;108131;1253;72854;-66
2023/03/22 04:59:48;;;;;;;39.60;23.70;;;;;;;21.83;37.64;100069.80;108162;1256;62026;-67
2023/03/22 05:02:17;;;;;;;43.50;25.80;;;;;;;21.66;37.79;100071.27;108025;1253;61299;-66
2023/03/22 05:04:47;;;;;;;40.10;23.90;;;;;;;21.79;37.72;100071.99;108199;1253;72954;-67
2023/03/22 05:07:28;;;;;;;42.90;24.60;;;;;;;22.26;37.02;100075.45;108104;1253;70347;-66
2023/03/22 05:09:58;;;;;;;40.20;24.20;;;;;;;22.26;37.03;100077.11;107989;1254;73630;-67
2023/03/22 05:12:27;;;;;;;35.60;23.40;;;;;;;21.78;37.84;100082.47;107965;1253;61514;-66
2023/03/22 05:15:13;;;;;;;37.30;22.40;;;;;;;22.29;37.24;100080.38;108241;1257;59518;-67
2023/03/22 05:17:42;;;;;;;37.60;22.80;;;;;;;22.26;37.33;100086.59;108111;1256;73909;-68
2023/03/22 05:20:10;;;;;;;32.90;21.40;;;;;;;22.09;37.53;100086.96;108073;1258;71249;-66
2023/03/22 05:22:41;;;;;;;36.00;21.40;;;;;;;22.31;37.33;100089.67;108091;1256;74033;-65
2023/03/22 05:25:10;;;;;;;37.50;21.00;;;;;;;22.28;37.08;100091.94;108078;1254;62163;-66
2023/03/22 05:27:41;;;;;;;27.40;18.10;;;;;;;22.03;37.41;100095.33;108145;1254;60515;-69
2023/03/22 05:30:29;;;;;;;29.50;18.10;;;;;;;22.22;37.08;100096.58;108004;1255;73702;-67
2023/03/22 05:33:03;;;;;;;33.30;20.20;;;;;;;22.29;36.82;100097.77;108043;1254;70434;-66
2023/03/22 05:35:37;;;;;;;31.10;19.00;;;;;;;22.32;36.79;100095.89;107903;1254;72611;-66
2023/03/22 05:38:06;;;;;;;;;;;;;;;22.13;36.94;100097.46;107923;1258;60882;-67
2023/03/22 05:40:38;;;;;;;33.50;18.50;;;;;;;22.00;37.31;100096.46;108073;1256;61055;-66
2023/03/22 05:43:07;;;;;;;31.80;20.10;;;;;;;22.45;36.67;100094.78;107933;1254;74135;-65
2023/03/22 05:45:39;;;;;;;29.10;20.10;;;;;;;22.41;37.01;100091.70;108011;1254;69868;-66
2023/03/22 05:48:14;;;;;;;31.10;20.20;;;;;;;22.86;36.38;100092.04;107893;1254;71761;-66
2023/03/22 05:50:43;;;;;;;28.10;17.70;;;;;;;23.02;36.26;100095.32;107878;1254;60889;-66
2023/03/22 05:53:12;;;;;;;30.30;19.40;;;;;;;22.93;36.28;100099.52;108045;1254;61350;-67
2023/03/22 05:55:48;;;;;;;27.20;18.10;;;;;;;22.81;36.48;100103.73;108083;1254;73733;-64
2023/03/22 05:58:23;;;;;;;26.70;17.40;;;;;;;23.26;36.09;100105.45;108065;1254;71386;-66
2023/03/22 06:00:51;;;;;;;28.50;18.10;;;;;;;23.63;35.33;100109.45;107938;1254;72557;-67
2023/03/22 06:03:26;;;;;;;29.50;18.20;;;;;;;23.36;35.82;100111.02;108049;1256;62180;-68
2023/03/22 06:06:12;;;;;;;26.70;17.50;;;;;;;23.65;35.61;100119.54;107961;1256;61521;-67
2023/03/22 06:08:46;;;;;;;25.70;16.50;;;;;;;23.87;35.01;100121.57;108030;1254;74163;-66
2023/03/22 06:11:21;;;;;;;25.80;16.50;;;;;;;24.22;34.93;100128.45;108472;1256;71211;-67
2023/03/22 06:13:50;;;;;;;25.80;16.60;;;;;;;24.42;34.77;100131.33;108107;1256;73581;-66
2023/03/22 06:16:19;;;;;;;24.40;17.00;;;;;;;24.87;34.34;100129.38;108014;1254;62823;-68
2023/03/22 06:18:48;;;;;;;22.80;15.90;;;;;;;25.27;33.77;100133.89;108134;1255;59938;-67
2023/03/22 06:21:16;;;;;;;25.10;16.40;;;;;;;25.76;32.98;100133.42;107908;1254;74594;-66
2023/03/22 06:23:45;;;;;;;26.20;16.60;;;;;;;25.89;32.54;100137.61;108033;1254;70843;-64
2023/03/22 06:26:18;;;;;;;21.60;14.90;;;;;;;25.26;33.07;100142.50;107878;1254;73371;-64
2023/03/22 06:28:46;;;;;;;25.30;16.20;;;;;;;24.99;33.38;100144.54;108000;1255;61296;-67
2023/03/22 06:31:15;;;;;;;24.40;13.90;;;;;;;25.25;33.19;100145.96;108035;1254;60344;-66
2023/03/22 06:33:56;;;;;;;26.00;15.70;;;;;;;25.76;31.86;100144.35;108039;1256;72055;-67
2023/03/22 06:36:29;;;;;;;24.30;14.90;;;;;;;25.56;31.97;100142.91;108055;1256;69996;-66
2023/03/22 06:39:12;;;;;;;23.90;15.40;;;;;;;25.65;32.15;100141.28;107975;1256;71058;-65
2023/03/22 06:41:43;;;;;;;24.90;15.50;;;;;;;25.98;31.76;100138.71;107839;1255;62899;-67
2023/03/22 06:44:13;;;;;;;19.40;14.50;;;;;;;26.10;31.72;100137.48;108004;1254;60259;-68
2023/03/22 06:46:50;;;;;;;22.90;13.80;;;;;;;26.11;31.70;100137.80;107975;1255;73804;-70
2023/03/22 06:49:43;;;;;;;23.90;14.90;;;;;;;26.21;31.26;100144.82;108025;1255;70629;-68
2023/03/22 06:52:15;;;;;;;22.10;15.20;;;;;;;26.46;31.19;100146.60;107957;1254;72733;-67
2023/03/22 06:54:44;;;;;;;20.60;14.00;;;;;;;26.59;30.82;100151.40;107970;1254;60531;-66
2023/03/22 06:57:12;;;;;;;22.60;14.50;;;;;;;27.11;30.22;100152.20;108051;1255;60288;-66
2023/03/22 06:59:40;;;;;;;21.10;14.60;;;;;;;27.16;30.03;100146.27;108048;1255;73822;-67
2023/03/22 07:02:12;;;;;;;22.10;14.70;;;;;;;27.25;30.67;100140.12;108036;1256;72012;-67
2023/03/22 07:04:45;;;;;;;24.90;15.30;;;;;;;27.85;30.18;100135.69;107928;1254;73968;-66
2023/03/22 07:07:14;;;;;;;21.30;13.70;;;;;;;28.35;29.61;100138.54;108163;1256;63101;-68
2023/03/22 07:09:42;;;;;;;18.80;12.80;;;;;;;29.65;28.41;100139.45;108254;1258;59669;-68
2023/03/22 07:12:12;;;;;;;18.00;12.80;;;;;;;30.46;27.01;100139.05;107969;1254;75154;-66
2023/03/22 07:14:41;;;;;;;18.60;12.00;;;;;;;31.14;26.35;100138.63;108113;1254;70736;-67
2023/03/22 07:17:31;;;;;;;16.50;11.70;;;;;;;32.11;25.39;100145.70;108104;1253;73944;-68
2023/03/22 07:20:01;;;;;;;19.00;12.80;;;;;;;32.30;24.54;100145.37;108113;1253;61203;-67
2023/03/22 07:22:30;;;;;;;19.70;13.00;;;;;;;32.42;23.91;100146.95;108023;1253;61893;-66
2023/03/22 07:25:00;;;;;;;17.60;12.70;;;;;;;32.27;23.93;100148.73;107937;1253;74536;-65
2023/03/22 07:27:49;;;;;;;16.60;12.30;;;;;;;31.79;24.19;100149.67;107969;1253;72401;-68
2023/03/22 07:30:20;;;;;;;20.50;14.20;;;;;;;31.21;24.30;100155.24;107947;1253;73805;-66
2023/03/22 07:32:48;;;;;;;16.80;11.00;;;;;;;29.84;25.42;100156.46;107953;1253;60480;-67
2023/03/22 07:35:17;;;;;;;19.00;12.60;;;;;;;29.66;25.76;100153.50;107878;1253;60373;-65
2023/03/22 07:37:47;;;;;;;18.10;12.20;;;;;;;29.61;26.17;100153.86;108078;1257;75316;-66
2023/03/22 07:40:24;;;;;;;20.10;13.40;;;;;;;30.13;25.78;100147.39;108145;1256;71310;-67
2023/03/22 07:42:55;;;;;;;20.60;13.00;;;;;;;30.36;25.88;100144.10;108101;1256;70916;-67
2023/03/22 07:45:41;;;;;;;16.80;11.90;;;;;;;31.35;25.02;100142.85;108110;1253;61329;-67
2023/03/22 07:48:48;;;;;;;17.80;10.80;;;;;;;31.66;24.32;100143.24;108100;1253;60348;-67
2023/03/22 07:51:36;;;;;;;14.20;10.40;;;;;;;33.09;23.65;100145.14;108089;1254;74672;-66
2023/03/22 07:54:05;;;;;;;13.30;10.10;;;;;;;34.28;21.95;100138.05;107919;1253;70404;-66
2023/03/22 07:56:35;;;;;;;14.00;9.80;;;;;;;34.28;21.67;100137.45;108083;1253;72875;-68
2023/03/22 07:59:04;;;;;;;12.60;9.30;;;;;;;35.37;20.82;100140.10;107877;1253;61622;-66
2023/03/22 08:01:32;;;;;;;15.10;9.50;;;;;;;35.62;20.38;100140.25;107878;1253;60320;-66
2023/03/22 08:04:07;;;;;;;16.40;11.60;;;;;;;36.01;20.19;100138.81;108120;1253;65857;-67
2023/03/22 08:06:57;;;;;;;16.80;11.00;;;;;;;35.98;19.70;100135.92;108148;1253;62457;-66
2023/03/22 08:09:27;;;;;;;14.40;10.40;;;;;;;35.85;19.88;100140.42;108098;1253;64972;-67
2023/03/22 08:11:57;;;;;;;13.70;10.30;;;;;;;35.97;19.88;100142.31;108097;1253;60187;-68
2023/03/22 08:14:25;;;;;;;16.10;10.60;;;;;;;36.44;20.02;100142.08;108086;1253;60546;-68
2023/03/22 08:17:06;;;;;;;13.50;9.60;;;;;;;36.77;18.95;100145.85;107920;1255;65932;-68
2023/03/22 08:19:35;;;;;;;14.50;9.70;;;;;;;36.65;19.01;100151.61;108138;1256;62331;-67
2023/03/22 08:22:05;;;;;;;11.60;8.50;;;;;;;36.70;19.07;100149.26;107976;1256;63726;-65
2023/03/22 08:24:58;;;;;;;15.20;10.10;;;;;;;36.83;19.05;100148.55;107767;1258;59700;-67
2023/03/22 08:27:30;;;;;;;11.90;8.30;;;;;;;36.98;18.98;100150.70;107929;1254;60345;-67
2023/03/22 08:29:59;;;;;;;12.70;8.40;;;;;;;36.98;18.50;100149.77;108080;1254;66248;-67
2023/03/22 08:32:28;;;;;;;11.60;8.50;;;;;;;36.62;18.86;100149.78;107928;1256;62239;-68
2023/03/22 08:34:57;;;;;;;13.10;9.30;;;;;;;36.20;19.21;100148.66;107991;1254;65118;-68
2023/03/22 08:37:25;;;;;;;13.60;8.60;;;;;;;35.70;19.34;100153.37;107903;1255;60660;-67
2023/03/22 08:39:54;;;;;;;12.60;9.20;;;;;;;35.50;19.39;100157.77;107971;1257;60224;-68
2023/03/22 08:42:37;;;;;;;11.70;8.90;;;;;;;35.39;19.54;100154.85;107968;1254;66498;-68
2023/03/22 08:45:09;;;;;;;13.60;10.00;;;;;;;35.42;19.32;100152.33;107969;1254;70775;-68
2023/03/22 08:47:43;;;;;;;10.90;8.60;;;;;;;34.54;20.26;100148.74;108001;1256;73809;-68
2023/03/22 08:50:12;;;;;;;10.50;7.90;;;;;;;34.68;20.27;100151.30;107949;1257;60331;-67
2023/03/22 08:52:47;;;;;;;10.80;7.70;;;;;;;34.92;19.77;100154.46;108059;1254;60606;-67
2023/03/22 08:55:23;;;;;;;12.50;8.30;;;;;;;35.20;19.85;100151.89;107974;1256;65914;-66
2023/03/22 08:58:20;;;;;;;11.00;8.00;;;;;;;35.63;19.50;100148.89;107785;1255;62645;-69
2023/03/22 09:01:27;;;;;;;11.50;7.70;;;;;;;36.30;18.69;100145.05;107749;1255;64838;-68
2023/03/22 09:04:02;;;;;;;10.30;8.20;;;;;;;36.50;18.49;100145.84;107874;1254;60346;-67
2023/03/22 09:06:31;;;;;;;8.60;6.60;;;;;;;37.10;18.38;100145.00;107892;1256;60304;-69
2023/03/22 09:09:02;;;;;;;14.70;7.00;;;;;;;37.54;17.55;100141.52;107895;1256;66386;-67
2023/03/22 09:11:34;;;;;;;12.30;7.30;;;;;;;37.51;17.67;100141.08;107929;1258;62616;-67
2023/03/22 09:14:02;;;;;;;10.40;7.10;;;;;;;37.25;17.65;100145.05;107892;1254;65293;-66
2023/03/22 09:16:38;;;;;;;8.60;6.10;;;;;;;36.63;17.70;100144.73;107864;1255;60234;-67
2023/03/22 09:19:06;;;;;;;8.50;6.70;;;;;;;36.22;18.19;100146.09;107959;1256;59638;-69
2023/03/22 09:21:35;;;;;;;10.60;6.50;;;;;;;35.89;18.33;100149.91;107862;1255;65883;-69
2023/03/22 09:24:20;;;;;;;17.60;8.00;;;;;;;35.65;18.54;100151.83;107964;1258;62740;-70
2023/03/22 09:26:52;;;;;;;11.10;7.40;;;;;;;34.84;19.34;100156.31;107873;1260;65085;-69
2023/03/22 09:29:21;;;;;;;10.90;7.30;;;;;;;34.45;19.60;100155.98;107867;1256;60355;-69
2023/03/22 09:31:52;;;;;;;;;;;;;;;34.53;19.71;100153.54;107842;1258;61554;-70
2023/03/22 09:34:27;;;;;;;10.40;7.10;;;;;;;34.95;19.57;100150.96;107892;1255;66231;-67
2023/03/22 09:37:01;;;;;;;9.70;7.00;;;;;;;34.73;19.45;100150.95;107877;1255;71538;-67
2023/03/22 09:39:37;;;;;;;9.90;6.50;;;;;;;34.58;19.67;100152.31;107812;1257;73857;-67
2023/03/22 09:42:09;;;;;;;12.50;7.50;;;;;;;34.47;19.68;100154.18;107815;1256;60354;-70
2023/03/22 09:44:40;;;;;;;10.10;6.80;;;;;;;34.62;19.25;100156.52;107826;1256;60400;-69
2023/03/22 09:47:12;;;;;;;;;;;;;;;34.40;19.57;100155.12;107918;1257;66147;-68
2023/03/22 09:49:47;;;;;;;10.00;7.60;;;;;;;34.23;19.67;100154.63;107894;1256;62359;-69
2023/03/22 09:52:21;;;;;;;9.90;6.70;;;;;;;33.98;19.76;100155.23;107835;1255;64719;-68
2023/03/22 09:54:49;;;;;;;14.30;7.20;;;;;;;34.04;20.33;100156.62;107962;1255;60576;-69
2023/03/22 09:57:35;;;;;;;8.50;6.30;;;;;;;34.19;19.98;100155.52;107994;1255;60095;-69
2023/03/22 10:00:26;;;;;;;13.30;6.00;;;;;;;34.28;19.79;100157.77;107975;1254;74310;-69
2023/03/22 10:02:56;;;;;;;9.00;5.80;;;;;;;34.39;19.77;100151.48;108005;1254;70356;-68
2023/03/22 10:05:26;;;;;;;8.20;5.70;;;;;;;34.51;19.62;100152.66;107983;1256;74363;-70
2023/03/22 10:08:16;;;;;;;7.80;5.40;;;;;;;34.51;19.59;100152.66;107960;1256;59560;-66
2023/03/22 10:10:45;;;;;;;8.90;5.10;;;;;;;34.36;19.40;100153.40;108025;1256;60467;-69
2023/03/22 10:13:32;;;;;;;7.30;5.30;;;;;;;34.26;19.08;100153.48;108064;1256;65878;-69
2023/03/22 10:16:05;;;;;;;7.00;5.10;;;;;;;34.52;18.61;100152.41;108044;1254;62617;-69
2023/03/22 10:18:39;;;;;;;7.60;5.20;;;;;;;34.15;18.89;100151.79;108141;1253;64972;-69
2023/03/22 10:21:14;;;;;;;8.70;5.50;;;;;;;33.75;19.72;100155.99;108091;1253;60907;-68
2023/03/22 10:23:42;;;;;;;7.80;5.10;;;;;;;33.42;19.77;100154.92;108019;1253;60407;-67
2023/03/22 10:26:28;;;;;;;7.10;4.70;;;;;;;32.96;20.25;100158.80;108120;1254;75061;-67
2023/03/22 10:29:03;;;;;;;6.40;4.70;;;;;;;32.80;20.08;100156.58;107930;1253;70431;-69
2023/03/22 10:31:31;;;;;;;6.60;5.10;;;;;;;32.94;20.28;100153.08;108073;1253;74152;-69
2023/03/22 10:34:32;;;;;;;7.50;5.40;;;;;;;33.23;20.36;100151.95;108031;1253;61686;-69
2023/03/22 10:37:01;;;;;;;9.30;5.20;;;;;;;33.75;19.77;100147.00;108148;1253;59713;-68
2023/03/22 10:39:32;;;;;;;8.60;5.80;;;;;;;33.95;19.87;100146.14;108184;1257;74022;-67
2023/03/22 10:42:06;;;;;;;7.80;5.50;;;;;;;33.95;20.02;100149.74;108138;1256;62589;-67
2023/03/22 10:44:46;;;;;;;8.50;5.80;;;;;;;33.99;19.61;100148.05;107987;1253;73372;-67
2023/03/22 10:47:17;;;;;;;8.30;5.10;;;;;;;34.02;19.70;100151.20;108116;1254;60663;-67
2023/03/22 10:49:53;;;;;;;6.00;4.40;;;;;;;34.32;19.36;100147.08;108002;1253;60348;-67
2023/03/22 10:53:04;;;;;;;7.30;4.40;;;;;;;34.27;19.16;100147.09;108129;1258;73470;-69
2023/03/22 10:55:38;;;;;;;6.50;4.30;;;;;;;33.95;19.42;100143.58;107819;1260;70389;-67
2023/03/22 10:58:21;;;;;;;5.50;3.90;;;;;;;33.37;19.38;100147.17;108090;1256;73912;-68
2023/03/22 11:00:51;;;;;;;7.40;4.70;;;;;;;32.72;19.88;100146.00;107924;1254;60334;-68
2023/03/22 11:03:35;;;;;;;8.50;4.80;;;;;;;32.71;20.11;100144.77;108090;1258;60613;-70
2023/03/22 11:06:12;;;;;;;6.20;3.70;;;;;;;32.25;20.66;100144.94;108021;1254;74954;-69
2023/03/22 11:08:42;;;;;;;5.20;4.10;;;;;;;32.02;20.52;100142.81;108010;1254;70578;-69
2023/03/22 11:11:31;;;;;;;10.10;4.40;;;;;;;32.02;20.77;100142.63;108015;1254;71730;-70
2023/03/22 11:14:04;;;;;;;4.40;3.40;;;;;;;31.96;20.87;100144.48;107971;1254;61616;-69
2023/03/22 11:16:45;;;;;;;5.20;3.20;;;;;;;32.16;20.21;100141.81;107966;1254;61398;-67
2023/03/22 11:19:16;;;;;;;6.10;3.80;;;;;;;32.12;20.40;100140.10;107888;1254;74886;-68
2023/03/22 11:21:45;;;;;;;6.50;3.50;;;;;;;31.72;20.88;100137.46;107969;1254;71305;-69
2023/03/22 11:24:14;;;;;;;4.50;3.00;;;;;;;31.15;21.32;100140.27;107988;1256;73579;-67
2023/03/22 11:27:02;;;;;;;6.60;3.10;;;;;;;30.84;22.13;100143.23;107904;1256;60430;-68
2023/03/22 11:29:45;;;;;;;4.30;3.00;;;;;;;30.61;21.77;100143.05;108045;1258;61737;-69
2023/03/22 11:32:36;;;;;;;14.60;8.20;;;;;;;30.67;21.80;100141.05;108026;1255;74177;-69
2023/03/22 11:35:17;;;;;;;5.40;3.50;;;;;;;30.83;21.73;100137.63;108060;1256;69580;-68
2023/03/22 11:37:47;;;;;;;4.00;2.90;;;;;;;30.63;21.68;100139.94;108059;1258;72164;-69
2023/03/22 11:40:20;;;;;;;6.10;3.10;;;;;;;30.49;21.86;100137.30;108055;1258;61267;-68
2023/03/22 11:42:52;;;;;;;6.80;3.30;;;;;;;30.50;22.00;100138.63;108014;1254;60524;-68